createdAt,value
2022-10-22T00:01:40.564Z,100.00
2022-10-22T00:04:07.421Z,100.00
2022-10-22T00:06:34.343Z,100.00
2022-10-22T00:09:01.101Z,100.00
2022-10-22T00:11:27.695Z,100.00
2022-10-22T00:13:54.381Z,100.00
2022-10-22T00:16:21.507Z,100.00
2022-10-22T00:18:48.073Z,100.00
2022-10-22T00:21:14.820Z,100.00
2022-10-22T00:23:42.882Z,100.00
2022-10-22T00:26:10.393Z,100.00
2022-10-22T00:28:37.538Z,100.00
2022-10-22T00:31:04.725Z,100.00
2022-10-22T00:33:31.403Z,100.00
2022-10-22T00:35:58.171Z,100.00
2022-10-22T00:38:24.842Z,100.00
2022-10-22T00:40:51.543Z,100.00
2022-10-22T00:43:19.510Z,100.00
2022-10-22T00:45:46.316Z,100.00
2022-10-22T00:48:33.565Z,100.00
2022-10-22T00:51:04.185Z,100.00
2022-10-22T00:53:39.521Z,100.00
2022-10-22T00:56:06.725Z,100.00
2022-10-22T00:58:36.656Z,100.00
2022-10-22T01:01:04.796Z,100.00
2022-10-22T01:03:32.181Z,100.00
2022-10-22T01:06:00.854Z,100.00
2022-10-22T01:08:33.628Z,100.00
2022-10-22T01:11:21.689Z,100.00
2022-10-22T01:14:06.769Z,100.00
2022-10-22T01:17:03.990Z,100.00
2022-10-22T01:19:30.493Z,100.00
2022-10-22T01:22:02.115Z,100.00
2022-10-22T01:24:57.452Z,100.00
2022-10-22T01:27:31.640Z,100.00
2022-10-22T01:30:10.292Z,100.00
2022-10-22T01:33:05.298Z,100.00
2022-10-22T01:35:36.916Z,100.00
2022-10-22T01:38:08.638Z,100.00
2022-10-22T01:40:36.546Z,100.00
2022-10-22T01:43:09.554Z,100.00
2022-10-22T01:45:41.351Z,100.00
2022-10-22T01:48:26.125Z,100.00
2022-10-22T01:51:08.216Z,100.00
2022-10-22T01:53:52.470Z,100.00
2022-10-22T01:56:18.943Z,100.00
2022-10-22T01:58:56.116Z,100.00
2022-10-22T02:01:50.487Z,100.00
2022-10-22T02:04:41.623Z,100.00
2022-10-22T02:07:11.396Z,100.00
2022-10-22T02:09:40.154Z,100.00
2022-10-22T02:12:09.206Z,100.00
2022-10-22T02:14:40.118Z,100.00
2022-10-22T02:17:12.223Z,100.00
2022-10-22T02:19:54.786Z,100.00
2022-10-22T02:22:21.866Z,100.00
2022-10-22T02:24:49.406Z,100.00
2022-10-22T02:27:33.019Z,100.00
2022-10-22T02:30:11.480Z,100.00
2022-10-22T02:33:13.038Z,100.00
2022-10-22T02:35:41.853Z,100.00
2022-10-22T02:38:09.629Z,100.00
2022-10-22T02:40:36.647Z,100.00
2022-10-22T02:43:05.818Z,100.00
2022-10-22T02:45:33.870Z,100.00
2022-10-22T02:48:00.797Z,100.00
2022-10-22T02:50:27.347Z,100.00
2022-10-22T02:52:53.902Z,100.00
2022-10-22T02:55:20.502Z,100.00
2022-10-22T02:57:47.121Z,100.00
2022-10-22T03:00:14.625Z,100.00
2022-10-22T03:02:41.323Z,100.00
2022-10-22T03:05:08.441Z,100.00
2022-10-22T03:07:35.539Z,100.00
2022-10-22T03:10:02.155Z,100.00
2022-10-22T03:12:28.677Z,100.00
2022-10-22T03:14:55.242Z,100.00
2022-10-22T03:17:21.813Z,100.00
2022-10-22T03:19:48.325Z,100.00
2022-10-22T03:22:24.059Z,100.00
2022-10-22T03:24:55.629Z,100.00
2022-10-22T03:27:23.101Z,100.00
2022-10-22T03:29:51.858Z,100.00
2022-10-22T03:32:19.134Z,100.00
2022-10-22T03:34:45.796Z,100.00
2022-10-22T03:37:12.763Z,100.00
2022-10-22T03:39:39.749Z,100.00
2022-10-22T03:42:07.438Z,100.00
2022-10-22T03:44:36.857Z,100.00
2022-10-22T03:47:03.518Z,100.00
2022-10-22T03:49:30.342Z,100.00
2022-10-22T03:51:57.117Z,100.00
2022-10-22T03:54:23.633Z,100.00
2022-10-22T03:56:50.186Z,100.00
2022-10-22T03:59:16.757Z,100.00
2022-10-22T04:01:43.398Z,100.00
2022-10-22T04:04:09.905Z,100.00
2022-10-22T04:06:36.563Z,100.00
2022-10-22T04:09:03.344Z,100.00
2022-10-22T04:11:29.917Z,100.00
2022-10-22T04:13:56.468Z,100.00
2022-10-22T04:16:25.181Z,100.00
2022-10-22T04:18:54.185Z,100.00
2022-10-22T04:21:20.791Z,100.00
2022-10-22T04:23:49.588Z,100.00
2022-10-22T04:26:17.610Z,100.00
2022-10-22T04:28:45.434Z,100.00
2022-10-22T04:31:14.904Z,100.00
2022-10-22T04:33:42.105Z,100.00
2022-10-22T04:36:13.546Z,100.00
2022-10-22T04:38:40.801Z,100.00
2022-10-22T04:41:10.853Z,100.00
2022-10-22T04:43:37.424Z,100.00
2022-10-22T04:46:04.212Z,100.00
2022-10-22T04:48:30.772Z,100.00
2022-10-22T04:50:58.970Z,100.00
2022-10-22T04:53:25.970Z,100.00
2022-10-22T04:55:52.496Z,100.00
2022-10-22T04:58:19.080Z,100.00
2022-10-22T05:00:45.668Z,100.00
2022-10-22T05:03:12.219Z,100.00
2022-10-22T05:05:38.795Z,100.00
2022-10-22T05:08:05.326Z,100.00
2022-10-22T05:10:31.842Z,100.00
2022-10-22T05:12:58.476Z,100.00
2022-10-22T05:15:24.996Z,100.00
2022-10-22T05:17:51.563Z,100.00
2022-10-22T05:20:18.241Z,100.00
2022-10-22T05:22:44.764Z,100.00
2022-10-22T05:25:12.219Z,100.00
2022-10-22T05:27:39.123Z,100.00
2022-10-22T05:30:06.496Z,100.00
2022-10-22T05:32:35.496Z,100.00
2022-10-22T05:35:02.077Z,100.00
2022-10-22T05:37:28.601Z,100.00
2022-10-22T05:40:06.513Z,100.00
2022-10-22T05:42:41.763Z,100.00
2022-10-22T05:45:08.942Z,100.00
2022-10-22T05:47:35.471Z,100.00
2022-10-22T05:50:02.017Z,100.00
2022-10-22T05:52:28.551Z,100.00
2022-10-22T05:54:55.061Z,100.00
2022-10-22T05:57:21.643Z,100.00
2022-10-22T05:59:48.175Z,100.00
2022-10-22T06:02:14.760Z,100.00
2022-10-22T06:04:41.440Z,100.00
2022-10-22T06:07:11.245Z,100.00
2022-10-22T06:09:38.987Z,100.00
2022-10-22T06:12:09.155Z,100.00
2022-10-22T06:14:35.892Z,100.00
2022-10-22T06:17:02.461Z,100.00
2022-10-22T06:19:31.279Z,100.00
2022-10-22T06:21:57.838Z,100.00
2022-10-22T06:24:24.388Z,100.00
2022-10-22T06:26:52.115Z,100.00
2022-10-22T06:29:19.046Z,100.00
2022-10-22T06:31:45.575Z,100.00
2022-10-22T06:34:13.978Z,100.00
2022-10-22T06:36:42.702Z,100.00
2022-10-22T06:39:12.479Z,100.00
2022-10-22T06:41:40.571Z,100.00
2022-10-22T06:44:07.412Z,100.00
2022-10-22T06:46:33.960Z,100.00
2022-10-22T06:49:03.078Z,100.00
2022-10-22T06:51:30.211Z,100.00
2022-10-22T06:53:57.972Z,100.00
2022-10-22T06:56:26.901Z,100.00
2022-10-22T06:58:55.123Z,100.00
2022-10-22T07:01:27.545Z,100.00
2022-10-22T07:03:54.894Z,100.00
2022-10-22T07:06:23.008Z,100.00
2022-10-22T07:08:49.755Z,100.00
2022-10-22T07:11:21.896Z,100.00
2022-10-22T07:13:49.377Z,100.00
2022-10-22T07:16:17.073Z,100.00
2022-10-22T07:18:44.879Z,100.00
2022-10-22T07:21:12.592Z,100.00
2022-10-22T07:23:39.712Z,100.00
2022-10-22T07:26:07.543Z,100.00
2022-10-22T07:28:36.477Z,100.00
2022-10-22T07:31:03.118Z,100.00
2022-10-22T07:33:29.724Z,100.00
2022-10-22T07:36:01.681Z,100.00
2022-10-22T07:38:28.889Z,100.00
2022-10-22T07:40:55.784Z,100.00
2022-10-22T08:48:14.563Z,100.00
2022-10-22T08:50:46.168Z,100.00
2022-10-22T08:53:16.513Z,100.00
2022-10-22T08:55:43.738Z,100.00
2022-10-22T08:58:54.756Z,100.00
2022-10-22T09:01:28.443Z,100.00
2022-10-22T09:03:59.899Z,100.00
2022-10-22T09:06:29.197Z,100.00
2022-10-22T09:08:58.299Z,100.00
2022-10-22T09:11:42.306Z,100.00
2022-10-22T09:17:06.478Z,100.00
2022-10-22T09:19:43.627Z,100.00
2022-10-22T09:22:12.923Z,100.00
2022-10-22T09:24:48.091Z,100.00
2022-10-22T09:27:16.583Z,100.00
2022-10-22T09:29:44.737Z,100.00
2022-10-22T09:32:11.530Z,100.00
2022-10-22T09:34:38.503Z,100.00
2022-10-22T09:37:09.953Z,100.00
2022-10-22T09:39:48.569Z,100.00
2022-10-22T09:42:16.968Z,100.00
2022-10-22T09:44:47.760Z,100.00
2022-10-22T09:47:42.972Z,100.00
2022-10-22T09:50:37.008Z,100.00
2022-10-22T09:53:18.885Z,100.00
2022-10-22T09:55:51.302Z,100.00
2022-10-22T09:58:18.954Z,100.00
2022-10-22T10:00:51.987Z,100.00
2022-10-22T10:03:22.210Z,100.00
2022-10-22T10:05:52.445Z,100.00
2022-10-22T10:08:19.695Z,100.00
2022-10-22T10:10:55.525Z,100.00
2022-10-22T10:13:52.697Z,100.00
2022-10-22T10:16:25.262Z,100.00
2022-10-22T10:19:00.927Z,100.00
2022-10-22T10:21:52.302Z,100.00
2022-10-22T10:25:00.452Z,100.00
2022-10-22T10:27:35.447Z,100.00
2022-10-22T10:30:11.625Z,100.00
2022-10-22T10:32:50.087Z,100.00
2022-10-22T10:35:28.276Z,100.00
2022-10-22T10:38:11.400Z,100.00
2022-10-22T10:41:00.705Z,100.00
2022-10-22T10:43:41.654Z,100.00
2022-10-22T10:46:23.173Z,100.00
2022-10-22T10:48:53.234Z,100.00
2022-10-22T10:51:53.790Z,100.00
2022-10-22T10:54:30.641Z,100.00
2022-10-22T10:57:31.839Z,100.00
2022-10-22T11:00:20.108Z,100.00
2022-10-22T11:03:23.968Z,100.00
2022-10-22T11:05:58.051Z,100.00
2022-10-22T11:08:31.874Z,100.00
2022-10-22T11:11:08.638Z,100.00
2022-10-22T11:13:38.585Z,100.00
2022-10-22T11:16:17.003Z,100.00
2022-10-22T11:19:04.294Z,90.50
2022-10-22T11:21:30.814Z,88.62
2022-10-22T11:24:22.679Z,92.47
2022-10-22T11:26:55.969Z,94.33
2022-10-22T11:29:29.456Z,91.41
2022-10-22T11:31:59.626Z,94.01
2022-10-22T11:34:36.005Z,95.65
2022-10-22T11:37:05.134Z,96.24
2022-10-22T11:39:40.942Z,91.24
2022-10-22T11:42:12.068Z,69.02
2022-10-22T11:45:00.714Z,66.11
2022-10-22T11:47:34.878Z,58.19
2022-10-22T11:50:25.307Z,54.53
2022-10-22T11:53:16.002Z,61.55
2022-10-22T11:55:46.036Z,69.45
2022-10-22T11:58:34.050Z,75.32
2022-10-22T12:01:09.634Z,81.43
2022-10-22T12:03:41.165Z,90.30
2022-10-22T12:06:15.690Z,97.19
2022-10-22T12:08:47.081Z,97.25
2022-10-22T12:11:15.739Z,91.73
2022-10-22T12:14:19.975Z,70.39
2022-10-22T12:16:56.671Z,70.62
2022-10-22T12:19:25.882Z,71.11
2022-10-22T12:22:10.614Z,67.50
2022-10-22T12:24:41.424Z,71.38
2022-10-22T12:27:37.673Z,75.71
2022-10-22T12:30:29.827Z,84.07
2022-10-22T12:33:00.491Z,90.80
2022-10-22T12:35:30.262Z,98.50
2022-10-22T12:38:00.342Z,100.00
2022-10-22T12:40:33.766Z,100.00
2022-10-22T12:43:07.499Z,100.00
2022-10-22T12:45:35.800Z,100.00
2022-10-22T12:48:08.270Z,100.00
2022-10-22T12:50:39.455Z,100.00
2022-10-22T12:53:21.072Z,100.00
2022-10-22T12:55:50.088Z,100.00
2022-10-22T12:58:21.338Z,100.00
2022-10-22T13:00:48.972Z,100.00
2022-10-22T13:03:26.059Z,100.00
2022-10-22T13:05:52.598Z,100.00
2022-10-22T13:10:55.892Z,100.00
2022-10-22T13:13:39.047Z,100.00
2022-10-22T13:16:20.123Z,100.00
2022-10-22T13:18:48.487Z,100.00
2022-10-22T13:21:26.929Z,100.00
2022-10-22T13:23:58.945Z,100.00
2022-10-22T13:26:32.311Z,100.00
2022-10-22T13:29:01.271Z,100.00
2022-10-22T13:31:33.484Z,100.00
2022-10-22T13:34:09.829Z,100.00
2022-10-22T13:36:38.576Z,100.00
2022-10-22T13:39:08.891Z,100.00
2022-10-22T13:44:06.864Z,100.00
2022-10-22T13:46:33.889Z,100.00
2022-10-22T13:49:00.502Z,100.00
2022-10-22T13:51:37.480Z,100.00
2022-10-22T13:54:10.571Z,100.00
2022-10-22T13:56:37.165Z,100.00
2022-10-22T13:59:03.702Z,100.00
2022-10-22T14:01:30.726Z,100.00
2022-10-22T14:03:59.707Z,100.00
2022-10-22T14:06:31.267Z,100.00
2022-10-22T14:09:01.061Z,100.00
2022-10-22T14:11:28.316Z,100.00
2022-10-22T14:13:55.084Z,100.00
2022-10-22T14:16:24.451Z,100.00
2022-10-22T14:18:51.591Z,100.00
2022-10-22T14:21:18.787Z,100.00
2022-10-22T14:23:47.422Z,100.00
2022-10-22T14:26:33.722Z,100.00
2022-10-22T14:29:10.182Z,100.00
2022-10-22T14:34:07.067Z,100.00
2022-10-22T14:36:33.592Z,100.00
2022-10-22T14:39:00.202Z,100.00
2022-10-22T14:41:29.069Z,100.00
2022-10-22T14:43:56.042Z,100.00
2022-10-22T14:46:22.957Z,100.00
2022-10-22T14:48:49.736Z,100.00
2022-10-22T14:51:18.401Z,100.00
2022-10-22T14:53:45.671Z,100.00
2022-10-22T14:56:13.440Z,100.00
2022-10-22T14:58:41.032Z,100.00
2022-10-22T15:01:08.969Z,100.00
2022-10-22T15:03:36.246Z,100.00
2022-10-22T15:06:03.326Z,100.00
2022-10-22T15:08:30.419Z,100.00
2022-10-22T15:11:04.583Z,100.00
2022-10-22T15:13:32.259Z,100.00
2022-10-22T15:15:59.258Z,100.00
2022-10-22T15:18:26.887Z,100.00
2022-10-22T15:21:01.485Z,100.00
2022-10-22T15:23:28.789Z,100.00
2022-10-22T15:25:55.674Z,100.00
2022-10-22T15:28:22.681Z,100.00
2022-10-22T15:31:00.226Z,100.00
2022-10-22T15:33:28.544Z,100.00
2022-10-22T15:35:55.787Z,100.00
2022-10-22T15:38:27.599Z,100.00
2022-10-22T18:57:09.656Z,100.00
2022-10-22T18:59:36.290Z,100.00
2022-10-22T19:02:02.835Z,100.00
2022-10-22T19:04:36.573Z,100.00
2022-10-22T19:07:05.269Z,100.00
2022-10-22T19:09:31.995Z,100.00
2022-10-22T19:11:59.554Z,100.00
2022-10-22T19:14:26.152Z,100.00
2022-10-22T19:16:52.929Z,100.00
2022-10-22T19:19:21.465Z,100.00
2022-10-22T19:21:48.711Z,100.00
2022-10-22T19:24:18.061Z,100.00
2022-10-22T19:26:45.406Z,100.00
2022-10-22T19:29:12.272Z,100.00
2022-10-22T19:31:40.814Z,100.00
2022-10-22T19:34:07.407Z,100.00
2022-10-22T19:36:35.307Z,100.00
2022-10-22T19:39:03.631Z,100.00
2022-10-22T19:41:32.580Z,100.00
2022-10-22T19:44:00.568Z,100.00
2022-10-22T19:46:29.226Z,100.00
2022-10-22T19:48:57.378Z,100.00
2022-10-22T19:51:33.558Z,100.00
2022-10-22T19:54:01.481Z,100.00
2022-10-22T19:56:28.886Z,100.00
2022-10-22T19:58:55.813Z,100.00
2022-10-22T20:01:23.067Z,100.00
2022-10-22T20:03:49.745Z,100.00
2022-10-22T20:06:17.784Z,100.00
2022-10-22T20:08:44.941Z,100.00
2022-10-22T20:11:22.952Z,100.00
2022-10-22T20:13:52.229Z,100.00
2022-10-22T20:16:23.102Z,100.00
2022-10-22T20:18:50.601Z,100.00
2022-10-22T20:21:19.368Z,100.00
2022-10-22T20:23:47.440Z,100.00
2022-10-22T20:26:14.345Z,100.00
2022-10-22T20:28:40.976Z,100.00
2022-10-22T20:31:16.998Z,100.00
2022-10-22T20:33:43.656Z,100.00
2022-10-22T20:36:15.893Z,100.00
2022-10-22T20:38:43.424Z,100.00
2022-10-22T20:41:16.030Z,100.00
2022-10-22T20:43:46.914Z,100.00
2022-10-22T20:46:23.233Z,100.00
2022-10-22T20:48:55.421Z,100.00
2022-10-22T20:51:22.202Z,100.00
2022-10-22T20:53:48.768Z,100.00
2022-10-22T20:56:16.377Z,100.00
2022-10-22T20:58:48.001Z,100.00
2022-10-22T21:01:24.185Z,100.00
2022-10-22T21:03:52.817Z,100.00
2022-10-22T21:06:23.245Z,100.00
2022-10-22T21:08:51.193Z,100.00
2022-10-22T21:11:18.786Z,100.00
2022-10-22T21:13:45.368Z,100.00
2022-10-22T21:16:14.079Z,100.00
2022-10-22T21:18:40.755Z,100.00
2022-10-22T21:21:08.435Z,100.00
2022-10-22T21:23:36.211Z,100.00
2022-10-22T21:26:03.679Z,100.00
2022-10-22T21:28:35.289Z,100.00
2022-10-22T21:31:04.399Z,100.00
2022-10-22T21:33:31.076Z,100.00
2022-10-22T21:35:57.755Z,100.00
2022-10-22T21:38:25.316Z,100.00
2022-10-22T21:40:52.277Z,100.00
2022-10-22T21:43:19.163Z,100.00
2022-10-22T21:45:45.773Z,100.00
2022-10-22T21:48:15.593Z,100.00
2022-10-22T21:50:44.012Z,100.00
2022-10-22T21:53:12.100Z,100.00
2022-10-22T21:55:40.247Z,100.00
2022-10-22T21:58:07.618Z,100.00
2022-10-22T22:00:35.251Z,100.00
2022-10-22T22:03:01.860Z,100.00
2022-10-22T22:05:28.996Z,100.00
2022-10-22T22:07:55.576Z,100.00
2022-10-22T22:10:22.118Z,100.00
2022-10-22T22:12:51.316Z,100.00
2022-10-22T22:15:19.232Z,100.00
2022-10-22T22:17:45.791Z,100.00
2022-10-22T22:20:12.352Z,100.00
2022-10-22T22:22:39.123Z,100.00
2022-10-22T22:25:06.089Z,100.00
2022-10-22T22:27:32.646Z,100.00
2022-10-22T22:29:59.175Z,100.00
2022-10-22T22:32:25.792Z,100.00
2022-10-22T22:34:52.327Z,100.00
2022-10-22T22:37:18.852Z,100.00
2022-10-22T22:39:45.413Z,100.00
2022-10-22T22:42:11.951Z,100.00
2022-10-22T22:44:38.979Z,100.00
2022-10-22T22:47:05.566Z,100.00
2022-10-22T22:49:32.106Z,100.00
2022-10-22T22:51:58.663Z,100.00
2022-10-22T22:54:25.246Z,100.00
2022-10-22T22:56:51.806Z,100.00
2022-10-22T22:59:18.355Z,100.00
2022-10-22T23:01:48.610Z,100.00
2022-10-22T23:04:22.851Z,100.00
2022-10-22T23:06:50.119Z,100.00
2022-10-22T23:09:21.682Z,100.00
2022-10-22T23:11:48.388Z,100.00
2022-10-22T23:14:17.715Z,100.00
2022-10-22T23:16:49.668Z,100.00
2022-10-22T23:19:18.976Z,100.00
2022-10-22T23:21:48.458Z,100.00
2022-10-22T23:24:17.562Z,100.00
2022-10-22T23:26:46.357Z,100.00
2022-10-22T23:29:30.553Z,100.00
2022-10-22T23:32:01.315Z,100.00
2022-10-22T23:34:28.836Z,100.00
2022-10-22T23:36:56.589Z,100.00
2022-10-22T23:39:26.253Z,100.00
2022-10-22T23:41:53.238Z,100.00
2022-10-22T23:44:20.825Z,100.00
2022-10-22T23:46:47.399Z,100.00
2022-10-22T23:49:14.662Z,100.00
2022-10-22T23:51:41.694Z,100.00
2022-10-22T23:54:13.456Z,100.00
2022-10-22T23:56:40.049Z,100.00
2022-10-22T23:59:07.291Z,100.00
